createdAt,value
2019-03-23T00:01:53.621Z,83.80
2019-03-23T00:04:22.380Z,83.90
2019-03-23T00:06:50.814Z,84.20
2019-03-23T00:09:19.257Z,83.70
2019-03-23T00:11:47.686Z,84.00
2019-03-23T00:14:16.129Z,84.50
2019-03-23T00:16:44.592Z,84.60
2019-03-23T00:19:13.029Z,84.50
2019-03-23T00:21:41.484Z,84.10
2019-03-23T00:24:10.002Z,84.00
2019-03-23T00:26:38.437Z,84.20
2019-03-23T00:29:06.884Z,83.90
2019-03-23T00:31:35.313Z,84.00
2019-03-23T00:34:03.757Z,84.10
2019-03-23T00:36:40.988Z,84.20
2019-03-23T00:39:02.425Z,84.40
2019-03-23T00:41:30.861Z,84.20
2019-03-23T00:43:59.313Z,85.50
2019-03-23T00:46:27.749Z,84.40
2019-03-23T00:48:56.187Z,84.30
2019-03-23T00:51:24.621Z,84.30
2019-03-23T00:53:53.065Z,84.50
2019-03-23T00:56:21.499Z,84.90
2019-03-23T00:58:50.002Z,85.20
2019-03-23T01:01:18.536Z,84.90
2019-03-23T01:03:47.105Z,84.60
2019-03-23T01:06:15.546Z,84.80
2019-03-23T01:08:43.981Z,85.00
2019-03-23T01:11:12.759Z,85.10
2019-03-23T01:13:41.189Z,85.20
2019-03-23T01:16:09.634Z,85.50
2019-03-23T01:18:38.065Z,85.00
2019-03-23T01:21:06.509Z,85.00
2019-03-23T01:23:34.951Z,85.30
2019-03-23T01:26:03.454Z,85.30
2019-03-23T01:28:31.906Z,85.90
2019-03-23T01:31:00.350Z,85.50
2019-03-23T01:33:28.874Z,85.70
2019-03-23T01:35:58.309Z,85.40
2019-03-23T01:38:26.740Z,85.60
2019-03-23T01:40:55.185Z,85.70
2019-03-23T01:43:23.622Z,85.70
2019-03-23T01:45:52.069Z,85.60
2019-03-23T01:48:20.572Z,85.70
2019-03-23T01:50:49.043Z,85.90
2019-03-23T01:53:17.502Z,85.40
2019-03-23T01:55:45.932Z,85.70
2019-03-23T01:58:14.385Z,85.70
2019-03-23T02:00:42.973Z,86.00
2019-03-23T02:03:11.405Z,85.80
2019-03-23T02:05:39.869Z,86.90
2019-03-23T02:08:08.334Z,85.40
2019-03-23T02:10:37.030Z,86.00
2019-03-23T02:13:05.558Z,86.20
2019-03-23T02:15:33.998Z,86.10
2019-03-23T02:18:02.474Z,86.10
2019-03-23T02:20:30.900Z,85.80
2019-03-23T02:22:59.353Z,86.00
2019-03-23T02:25:27.829Z,85.80
2019-03-23T02:27:56.321Z,85.80
2019-03-23T02:30:24.822Z,86.00
2019-03-23T02:32:53.574Z,85.70
2019-03-23T02:35:22.017Z,85.80
2019-03-23T02:37:50.449Z,86.60
2019-03-23T02:40:19.147Z,86.50
2019-03-23T02:42:47.574Z,86.50
2019-03-23T02:45:16.396Z,86.50
2019-03-23T02:47:44.832Z,86.50
2019-03-23T02:50:13.319Z,85.90
2019-03-23T02:52:41.757Z,86.20
2019-03-23T02:55:10.806Z,86.30
2019-03-23T02:57:39.355Z,86.50
2019-03-23T03:00:10.834Z,86.50
2019-03-23T03:02:39.283Z,86.90
2019-03-23T03:05:09.062Z,86.40
2019-03-23T03:07:42.362Z,86.60
2019-03-23T03:10:11.062Z,87.10
2019-03-23T03:12:38.783Z,86.90
2019-03-23T03:15:09.357Z,89.40
2019-03-23T03:17:37.804Z,87.30
2019-03-23T03:20:08.061Z,87.20
2019-03-23T03:22:36.529Z,87.10
2019-03-23T03:25:07.265Z,87.10
2019-03-23T03:27:35.700Z,87.30
2019-03-23T03:30:05.574Z,87.30
2019-03-23T03:32:34.018Z,87.30
2019-03-23T03:35:02.442Z,87.40
2019-03-23T03:37:30.891Z,87.30
2019-03-23T03:40:00.513Z,87.60
2019-03-23T03:42:28.998Z,87.70
2019-03-23T03:44:57.431Z,87.40
2019-03-23T03:47:25.877Z,87.40
2019-03-23T03:49:54.309Z,87.10
2019-03-23T03:52:22.773Z,87.30
2019-03-23T03:54:51.229Z,87.80
2019-03-23T03:57:19.664Z,88.00
2019-03-23T03:59:48.114Z,88.00
2019-03-23T04:02:16.553Z,88.10
2019-03-23T04:04:44.985Z,87.80
2019-03-23T04:07:13.463Z,87.60
2019-03-23T04:09:41.904Z,87.60
2019-03-23T04:12:10.329Z,87.70
2019-03-23T04:14:38.773Z,87.50
2019-03-23T04:17:07.223Z,87.70
2019-03-23T04:19:35.670Z,87.70
2019-03-23T04:22:04.919Z,87.50
2019-03-23T04:24:33.419Z,87.60
2019-03-23T04:27:03.511Z,87.20
2019-03-23T04:29:31.951Z,87.80
2019-03-23T04:32:00.470Z,87.90
2019-03-23T04:34:28.897Z,87.90
2019-03-23T04:36:57.349Z,88.00
2019-03-23T04:39:25.798Z,87.30
2019-03-23T04:41:54.288Z,87.90
2019-03-23T04:44:22.734Z,88.60
2019-03-23T04:46:51.165Z,88.50
2019-03-23T04:49:19.610Z,88.50
2019-03-23T04:51:48.036Z,88.40
2019-03-23T04:54:16.477Z,88.40
2019-03-23T04:56:44.984Z,88.10
2019-03-23T04:59:13.437Z,88.20
2019-03-23T05:01:41.857Z,88.00
2019-03-23T05:04:10.297Z,88.30
2019-03-23T05:06:38.726Z,88.10
2019-03-23T05:09:08.908Z,88.30
2019-03-23T05:11:37.700Z,88.40
2019-03-23T05:14:06.133Z,88.00
2019-03-23T05:16:34.566Z,88.40
2019-03-23T05:19:03.013Z,89.20
2019-03-23T05:21:31.521Z,88.80
2019-03-23T05:23:59.965Z,89.00
2019-03-23T05:26:28.394Z,88.70
2019-03-23T05:28:56.833Z,90.60
2019-03-23T05:31:25.554Z,89.50
2019-03-23T05:33:54.357Z,89.00
2019-03-23T05:36:22.789Z,88.70
2019-03-23T05:38:51.229Z,89.30
2019-03-23T05:41:19.656Z,88.70
2019-03-23T05:43:48.104Z,88.60
2019-03-23T05:46:16.534Z,87.80
2019-03-23T05:48:44.989Z,88.50
2019-03-23T05:51:13.409Z,88.70
2019-03-23T05:53:41.873Z,88.10
2019-03-23T05:56:10.333Z,87.90
2019-03-23T05:58:38.765Z,88.20
2019-03-23T06:01:07.209Z,88.00
2019-03-23T06:03:35.649Z,87.80
2019-03-23T06:06:04.407Z,88.60
2019-03-23T06:08:32.887Z,88.40
2019-03-23T06:11:01.365Z,88.20
2019-03-23T06:13:30.149Z,88.00
2019-03-23T06:15:58.817Z,88.20
2019-03-23T06:18:27.261Z,88.90
2019-03-23T06:20:56.007Z,87.90
2019-03-23T06:23:24.693Z,88.40
2019-03-23T06:25:53.134Z,88.30
2019-03-23T06:28:21.569Z,88.60
2019-03-23T06:30:50.005Z,88.20
2019-03-23T06:33:18.439Z,87.90
2019-03-23T06:35:47.207Z,88.40
2019-03-23T06:38:16.435Z,88.30
2019-03-23T06:40:44.967Z,88.70
2019-03-23T06:43:33.133Z,88.20
2019-03-23T06:46:01.575Z,88.40
2019-03-23T06:48:30.005Z,88.40
2019-03-23T06:50:59.309Z,88.70
2019-03-23T06:53:27.742Z,89.10
2019-03-23T06:55:56.186Z,88.30
2019-03-23T06:58:24.624Z,88.20
2019-03-23T07:00:53.062Z,88.00
2019-03-23T07:03:21.497Z,88.30
2019-03-23T07:05:49.945Z,87.90
2019-03-23T07:08:18.383Z,87.70
2019-03-23T07:10:46.820Z,87.50
2019-03-23T07:13:15.254Z,86.80
2019-03-23T07:15:44.008Z,86.50
2019-03-23T07:18:12.433Z,86.20
2019-03-23T07:20:40.888Z,85.70
2019-03-23T07:23:09.316Z,85.70
2019-03-23T07:25:37.784Z,85.60
2019-03-23T07:28:07.937Z,85.70
2019-03-23T07:30:36.545Z,85.30
2019-03-23T07:33:05.113Z,85.40
2019-03-23T07:35:33.578Z,84.90
2019-03-23T07:38:02.006Z,85.20
2019-03-23T07:40:30.781Z,85.20
2019-03-23T07:42:59.273Z,84.90
2019-03-23T07:45:27.709Z,85.60
2019-03-23T07:47:56.133Z,84.70
2019-03-23T07:50:24.572Z,84.70
2019-03-23T07:52:53.005Z,84.10
2019-03-23T07:55:21.435Z,83.30
2019-03-23T07:57:49.857Z,83.40
2019-03-23T08:00:22.102Z,83.50
2019-03-23T08:02:50.527Z,83.60
2019-03-23T08:05:19.032Z,82.50
2019-03-23T08:07:47.464Z,82.00
2019-03-23T08:10:32.561Z,83.10
2019-03-23T08:13:00.992Z,81.40
2019-03-23T08:15:29.774Z,81.70
2019-03-23T08:17:58.199Z,80.60
2019-03-23T08:20:27.412Z,80.80
2019-03-23T08:22:55.908Z,79.70
2019-03-23T08:25:24.635Z,79.90
2019-03-23T08:27:53.137Z,79.70
2019-03-23T08:30:21.577Z,79.90
2019-03-23T08:32:50.071Z,79.50
2019-03-23T08:35:18.524Z,78.10
2019-03-23T08:37:47.038Z,77.50
2019-03-23T08:40:16.342Z,76.80
2019-03-23T08:42:44.788Z,76.10
2019-03-23T08:45:13.477Z,75.20
2019-03-23T08:47:42.198Z,75.20
2019-03-23T08:50:10.805Z,75.10
2019-03-23T08:52:39.237Z,73.30
2019-03-23T08:55:07.688Z,73.20
2019-03-23T08:57:36.185Z,73.40
2019-03-23T09:00:06.761Z,73.50
2019-03-23T09:02:35.202Z,72.20
2019-03-23T09:05:04.757Z,69.00
2019-03-23T09:07:33.558Z,70.70
2019-03-23T09:10:01.976Z,71.30
2019-03-23T09:12:30.447Z,70.90
2019-03-23T09:14:58.904Z,67.90
2019-03-23T09:17:27.361Z,68.60
2019-03-23T09:20:15.337Z,69.10
2019-03-23T09:22:43.844Z,69.30
2019-03-23T09:25:12.282Z,68.50
2019-03-23T09:27:40.747Z,68.40
2019-03-23T09:30:13.732Z,69.40
2019-03-23T09:32:42.518Z,69.00
2019-03-23T09:35:11.051Z,67.70
2019-03-23T09:37:39.542Z,68.30
2019-03-23T09:40:11.120Z,67.20
2019-03-23T09:42:38.572Z,64.90
2019-03-23T09:45:08.550Z,64.10
2019-03-23T09:47:37.257Z,63.00
2019-03-23T09:50:08.341Z,63.30
2019-03-23T09:52:36.781Z,63.90
2019-03-23T09:55:06.738Z,63.90
2019-03-23T09:57:35.185Z,62.60
2019-03-23T10:00:12.108Z,62.00
2019-03-23T10:02:40.558Z,61.50
2019-03-23T10:05:17.795Z,58.30
2019-03-23T10:07:47.958Z,58.80
2019-03-23T10:10:21.758Z,58.80
2019-03-23T10:12:46.579Z,58.30
2019-03-23T10:15:15.037Z,56.40
2019-03-23T10:17:43.490Z,57.10
2019-03-23T10:20:12.058Z,55.30
2019-03-23T10:22:40.505Z,54.00
2019-03-23T10:25:09.217Z,55.50
2019-03-23T10:27:37.701Z,56.00
2019-03-23T10:30:08.194Z,56.40
2019-03-23T10:32:36.636Z,54.40
2019-03-23T10:35:07.226Z,54.80
2019-03-23T10:37:35.957Z,54.40
2019-03-23T10:40:07.534Z,54.40
2019-03-23T10:42:36.110Z,56.00
2019-03-23T10:45:06.593Z,56.10
2019-03-23T10:47:35.146Z,55.60
2019-03-23T10:50:04.931Z,55.40
2019-03-23T10:52:33.470Z,55.00
2019-03-23T10:55:01.905Z,55.80
2019-03-23T10:57:30.627Z,54.00
2019-03-23T10:59:59.057Z,54.70
2019-03-23T11:02:27.800Z,55.50
2019-03-23T11:04:56.232Z,54.40
2019-03-23T11:07:24.758Z,54.90
2019-03-23T11:09:53.188Z,55.30
2019-03-23T11:12:21.657Z,54.00
2019-03-23T11:14:50.423Z,54.80
2019-03-23T11:17:18.915Z,55.10
2019-03-23T11:19:47.372Z,56.00
2019-03-23T11:22:15.805Z,55.10
2019-03-23T11:24:51.051Z,56.10
2019-03-23T11:27:19.809Z,55.60
2019-03-23T11:29:50.980Z,55.20
2019-03-23T11:32:18.429Z,54.20
2019-03-23T11:34:49.341Z,55.20
2019-03-23T11:37:23.753Z,53.90
2019-03-23T11:39:52.589Z,53.80
2019-03-23T11:42:21.298Z,54.10
2019-03-23T11:44:49.774Z,54.30
2019-03-23T11:47:18.359Z,53.70
2019-03-23T11:49:46.808Z,52.90
2019-03-23T11:52:15.245Z,53.20
2019-03-23T11:54:43.690Z,53.00
2019-03-23T11:57:12.415Z,52.20
2019-03-23T11:59:40.862Z,51.30
2019-03-23T12:02:09.383Z,51.80
2019-03-23T12:04:37.829Z,51.80
2019-03-23T12:07:06.337Z,50.60
2019-03-23T12:09:34.837Z,53.00
2019-03-23T12:12:03.344Z,52.20
2019-03-23T12:14:31.798Z,53.40
2019-03-23T12:17:00.225Z,53.50
2019-03-23T12:19:28.693Z,53.80
2019-03-23T12:21:57.161Z,55.40
2019-03-23T12:24:25.594Z,51.90
2019-03-23T12:26:54.118Z,52.70
2019-03-23T12:29:22.551Z,51.40
2019-03-23T12:31:51.253Z,50.80
2019-03-23T12:34:19.705Z,50.40
2019-03-23T12:36:48.430Z,51.30
2019-03-23T12:39:16.877Z,51.60
2019-03-23T12:41:45.397Z,51.10
2019-03-23T12:44:13.990Z,50.80
2019-03-23T12:46:48.274Z,50.50
2019-03-23T12:49:12.614Z,49.80
2019-03-23T12:51:41.121Z,50.10
2019-03-23T12:54:09.641Z,50.90
2019-03-23T12:56:38.159Z,49.70
2019-03-23T12:59:06.605Z,50.60
2019-03-23T13:01:35.049Z,50.50
2019-03-23T13:04:22.835Z,49.60
2019-03-23T13:06:51.276Z,48.50
2019-03-23T13:09:19.725Z,47.70
2019-03-23T13:11:48.162Z,48.30
2019-03-23T13:14:16.640Z,47.60
2019-03-23T13:16:45.079Z,46.90
2019-03-23T13:19:13.545Z,48.10
2019-03-23T13:21:42.022Z,47.00
2019-03-23T13:24:10.454Z,49.70
2019-03-23T13:26:38.905Z,47.00
2019-03-23T13:29:07.333Z,46.70
2019-03-23T13:31:35.782Z,46.40
2019-03-23T13:34:23.645Z,46.10
2019-03-23T13:36:52.081Z,47.10
2019-03-23T13:39:20.819Z,46.50
2019-03-23T13:41:50.534Z,44.90
2019-03-23T13:44:19.241Z,44.80
2019-03-23T13:46:47.706Z,45.20
2019-03-23T13:49:16.485Z,44.90
2019-03-23T13:51:44.955Z,44.40
2019-03-23T13:54:13.421Z,44.80
2019-03-23T13:56:42.131Z,45.80
2019-03-23T13:59:10.603Z,45.20
2019-03-23T14:01:39.033Z,46.90
2019-03-23T14:04:07.507Z,44.90
2019-03-23T14:06:36.271Z,44.80
2019-03-23T14:09:06.489Z,45.30
2019-03-23T14:11:34.938Z,44.70
2019-03-23T14:14:03.372Z,44.50
2019-03-23T14:16:31.831Z,43.40
2019-03-23T14:19:00.617Z,44.70
2019-03-23T14:21:29.144Z,43.70
2019-03-23T14:23:57.889Z,43.00
2019-03-23T14:26:26.337Z,42.70
2019-03-23T14:28:54.769Z,44.50
2019-03-23T14:31:23.381Z,42.90
2019-03-23T14:33:51.850Z,42.30
2019-03-23T14:36:20.293Z,41.80
2019-03-23T14:38:48.761Z,43.20
2019-03-23T14:41:17.197Z,42.40
2019-03-23T14:43:45.942Z,44.50
2019-03-23T14:46:15.401Z,42.80
2019-03-23T14:48:44.014Z,41.90
2019-03-23T14:51:12.486Z,40.70
2019-03-23T14:53:41.306Z,42.00
2019-03-23T14:56:09.777Z,43.10
2019-03-23T14:58:38.225Z,42.20
2019-03-23T15:01:06.677Z,40.10
2019-03-23T15:03:35.110Z,39.20
2019-03-23T15:06:03.639Z,41.30
2019-03-23T15:08:32.069Z,42.00
2019-03-23T15:11:00.533Z,41.40
2019-03-23T15:13:28.987Z,43.30
2019-03-23T15:15:57.436Z,41.40
2019-03-23T15:18:25.872Z,43.40
2019-03-23T15:20:54.440Z,41.50
2019-03-23T15:23:23.185Z,41.40
2019-03-23T15:25:51.626Z,42.40
2019-03-23T15:28:20.110Z,42.80
2019-03-23T15:30:48.546Z,41.40
2019-03-23T15:33:17.020Z,42.00
2019-03-23T15:35:45.456Z,42.80
2019-03-23T15:38:13.921Z,43.50
2019-03-23T15:40:42.358Z,41.90
2019-03-23T15:43:10.788Z,39.90
2019-03-23T15:45:39.247Z,40.50
2019-03-23T15:48:09.401Z,43.00
2019-03-23T15:50:37.836Z,42.30
2019-03-23T15:53:06.285Z,41.60
2019-03-23T15:55:34.722Z,43.10
2019-03-23T15:58:03.469Z,41.90
2019-03-23T16:00:31.981Z,41.70
2019-03-23T16:03:00.433Z,43.80
2019-03-23T16:05:28.880Z,41.40
2019-03-23T16:07:57.335Z,39.90
2019-03-23T16:10:25.778Z,40.00
2019-03-23T16:13:13.560Z,40.40
2019-03-23T16:15:41.992Z,41.80
2019-03-23T16:18:10.452Z,41.90
2019-03-23T16:20:38.967Z,40.20
2019-03-23T16:23:07.908Z,41.10
2019-03-23T16:25:36.469Z,42.00
2019-03-23T16:28:04.941Z,43.00
2019-03-23T16:30:33.542Z,43.70
2019-03-23T16:33:02.002Z,43.40
2019-03-23T16:35:30.473Z,44.70
2019-03-23T16:37:58.914Z,43.50
2019-03-23T16:40:27.362Z,44.80
2019-03-23T16:42:56.049Z,44.80
2019-03-23T16:45:24.490Z,44.10
2019-03-23T16:47:52.945Z,44.00
2019-03-23T16:50:21.388Z,45.20
2019-03-23T16:52:49.904Z,45.40
2019-03-23T16:55:18.337Z,45.30
2019-03-23T16:57:46.781Z,45.40
2019-03-23T17:00:17.527Z,45.50
2019-03-23T17:02:45.994Z,46.00
2019-03-23T17:05:14.429Z,46.30
2019-03-23T17:07:42.877Z,46.90
2019-03-23T17:10:11.661Z,47.20
2019-03-23T17:12:59.647Z,47.50
2019-03-23T17:15:28.385Z,49.50
2019-03-23T17:17:56.825Z,50.60
2019-03-23T17:20:25.268Z,51.10
2019-03-23T17:22:53.725Z,51.60
2019-03-23T17:25:22.156Z,52.20
2019-03-23T17:27:50.623Z,52.70
2019-03-23T17:30:19.054Z,53.20
2019-03-23T17:32:47.505Z,53.50
2019-03-23T17:35:15.947Z,53.60
2019-03-23T17:37:44.398Z,53.80
2019-03-23T17:40:32.449Z,54.10
2019-03-23T17:43:05.856Z,54.50
2019-03-23T17:45:31.090Z,55.50
2019-03-23T17:47:59.798Z,55.60
2019-03-23T17:50:28.242Z,55.70
2019-03-23T17:52:56.704Z,56.00
2019-03-23T17:55:25.489Z,56.50
2019-03-23T17:57:53.938Z,57.60
2019-03-23T18:00:22.454Z,57.70
2019-03-23T18:02:50.889Z,58.10
2019-03-23T18:05:21.574Z,58.10
2019-03-23T18:07:50.017Z,58.00
2019-03-23T18:10:18.478Z,58.20
2019-03-23T18:12:46.930Z,58.00
2019-03-23T18:15:15.525Z,59.10
2019-03-23T18:17:43.944Z,61.00
2019-03-23T18:20:13.179Z,59.50
2019-03-23T18:22:41.691Z,60.20
2019-03-23T18:25:10.609Z,60.70
2019-03-23T18:27:39.115Z,61.30
2019-03-23T18:30:16.458Z,61.60
2019-03-23T18:32:44.893Z,61.30
2019-03-23T18:35:13.414Z,61.50
2019-03-23T18:37:42.197Z,61.90
2019-03-23T18:40:10.666Z,63.10
2019-03-23T18:42:39.100Z,62.80
2019-03-23T18:45:08.034Z,63.40
2019-03-23T18:47:36.471Z,63.60
2019-03-23T18:50:06.571Z,63.60
2019-03-23T18:52:35.010Z,64.00
2019-03-23T18:55:05.393Z,64.60
2019-03-23T18:57:33.978Z,64.80
2019-03-23T19:00:02.509Z,65.70
2019-03-23T19:02:30.947Z,65.70
2019-03-23T19:04:59.850Z,65.60
2019-03-23T19:07:28.287Z,66.50
2019-03-23T19:09:56.752Z,66.10
2019-03-23T19:12:25.604Z,66.30
2019-03-23T19:14:54.140Z,66.50
2019-03-23T19:17:22.919Z,67.20
2019-03-23T19:19:51.798Z,67.00
2019-03-23T19:22:20.354Z,67.20
2019-03-23T19:24:48.846Z,68.30
2019-03-23T19:27:17.659Z,67.90
2019-03-23T19:29:46.231Z,68.00
2019-03-23T19:32:14.677Z,68.10
2019-03-23T19:34:43.121Z,68.60
2019-03-23T19:37:11.642Z,69.30
2019-03-23T19:39:40.073Z,69.30
2019-03-23T19:42:08.505Z,69.60
2019-03-23T19:44:36.950Z,70.30
2019-03-23T19:47:05.388Z,70.80
2019-03-23T19:49:33.837Z,71.90
2019-03-23T19:52:02.278Z,72.80
2019-03-23T19:54:31.066Z,74.10
2019-03-23T19:56:59.565Z,72.80
2019-03-23T19:59:28.194Z,73.00
2019-03-23T20:01:57.570Z,73.00
2019-03-23T20:04:26.977Z,72.60
2019-03-23T20:06:55.851Z,72.30
2019-03-23T20:09:25.068Z,72.50
2019-03-23T20:11:54.104Z,72.70
2019-03-23T20:14:23.279Z,72.50
2019-03-23T20:16:52.320Z,72.40
2019-03-23T20:19:21.269Z,72.40
2019-03-23T20:21:50.652Z,72.90
2019-03-23T20:24:19.609Z,73.00
2019-03-23T20:26:48.637Z,73.00
2019-03-23T20:29:17.536Z,73.40
2019-03-23T20:31:46.931Z,74.60
2019-03-23T20:34:16.900Z,73.70
2019-03-23T20:36:46.588Z,73.80
2019-03-23T20:39:15.757Z,73.60
2019-03-23T20:41:45.051Z,74.00
2019-03-23T20:44:14.175Z,73.80
2019-03-23T20:46:43.914Z,73.70
2019-03-23T20:49:12.920Z,74.00
2019-03-23T20:51:41.618Z,74.60
2019-03-23T20:54:10.056Z,74.60
2019-03-23T20:56:38.495Z,75.80
2019-03-23T20:59:06.931Z,75.80
2019-03-23T21:01:35.379Z,75.60
2019-03-23T21:04:03.869Z,76.20
2019-03-23T21:06:32.586Z,76.40
2019-03-23T21:09:01.015Z,76.90
2019-03-23T21:11:29.477Z,76.60
2019-03-23T21:13:57.907Z,76.80
2019-03-23T21:16:45.687Z,76.60
2019-03-23T21:19:14.143Z,76.60
2019-03-23T21:21:42.581Z,76.60
2019-03-23T21:24:11.013Z,76.50
2019-03-23T21:26:39.791Z,76.60
2019-03-23T21:29:08.221Z,76.80
2019-03-23T21:31:36.670Z,77.30
2019-03-23T21:34:05.101Z,77.30
2019-03-23T21:36:33.819Z,77.30
2019-03-23T21:39:02.250Z,77.00
2019-03-23T21:41:30.773Z,78.20
2019-03-23T21:43:59.204Z,78.20
2019-03-23T21:46:27.661Z,78.60
2019-03-23T21:48:56.084Z,78.80
2019-03-23T21:51:24.539Z,78.80
2019-03-23T21:53:52.969Z,79.00
2019-03-23T21:56:21.409Z,79.50
2019-03-23T21:58:49.849Z,79.90
2019-03-23T22:01:18.636Z,80.20
2019-03-23T22:03:47.421Z,80.30
2019-03-23T22:06:15.885Z,79.70
2019-03-23T22:08:44.694Z,79.50
2019-03-23T22:11:13.377Z,79.90
2019-03-23T22:13:41.826Z,80.10
2019-03-23T22:16:10.278Z,79.70
2019-03-23T22:18:38.710Z,79.70
2019-03-23T22:21:07.413Z,79.90
2019-03-23T22:23:36.198Z,79.90
2019-03-23T22:26:04.709Z,80.30
2019-03-23T22:28:33.149Z,80.00
2019-03-23T22:31:01.586Z,80.40
2019-03-23T22:33:30.038Z,80.80
2019-03-23T22:35:58.898Z,80.70
2019-03-23T22:38:27.345Z,80.40
2019-03-23T22:40:55.777Z,80.80
2019-03-23T22:43:24.302Z,80.70
2019-03-23T22:45:52.729Z,81.40
2019-03-23T22:48:21.173Z,81.70
2019-03-23T22:50:49.607Z,82.70
2019-03-23T22:53:18.050Z,83.30
2019-03-23T22:55:46.486Z,83.00
2019-03-23T22:58:14.941Z,83.40
2019-03-23T23:00:44.374Z,82.80
2019-03-23T23:03:13.060Z,83.50
2019-03-23T23:05:41.812Z,82.80
2019-03-23T23:08:10.255Z,84.10
2019-03-23T23:10:39.011Z,85.00
2019-03-23T23:13:26.793Z,85.20
2019-03-23T23:15:55.481Z,84.10
2019-03-23T23:18:24.200Z,83.80
2019-03-23T23:20:52.629Z,84.70
2019-03-23T23:23:21.085Z,84.00
2019-03-23T23:25:49.513Z,84.60
2019-03-23T23:28:17.958Z,83.60
2019-03-23T23:30:46.413Z,85.30
2019-03-23T23:33:15.191Z,85.40
2019-03-23T23:35:43.621Z,86.00
2019-03-23T23:38:12.073Z,86.10
2019-03-23T23:40:40.501Z,85.80
2019-03-23T23:43:08.961Z,86.60
2019-03-23T23:45:37.463Z,87.30
2019-03-23T23:48:05.921Z,87.20
2019-03-23T23:50:34.355Z,86.60
2019-03-23T23:53:02.785Z,87.60
2019-03-23T23:55:31.541Z,87.40
2019-03-23T23:58:00.317Z,88.00
